Latest Weather Observations for Bunbury

IDW60801

Issued at 6:53 pm WST Saturday 22 February 2020 (issued every 10 minutes, with the page automatically refreshed every 10 minutes)

About weather observations | Map of weather stations | Latest weather observations for WA | Other Formats
Station Details ID: 009965 Name: BUNBURY Lat: -33.36 Lon: 115.64 Height: 5.2 m
Data from the previous 72 hours. | See also: Recent months at Bunbury
Date/Time
WST
Temp
°C
App
Temp
°C
Dew
Point
°C
Rel
Hum
%
Delta-T
°C
Wind Press
QNH
hPa
Press
MSL
hPa
Rain since
9am
mm
Dir  Spd
km/h
Gust
km/h
Spd
kts
Gust
kts
22/06:30pm 24.6 25.8 17.3 64 4.5 SSE 7 11 4 6 1011.2 1011.2 0.2
22/06:00pm 25.4 26.8 17.3 61 5.0 S 6 7 3 4 1011.2 1011.2 0.2
22/05:30pm 26.2 27.2 17.8 60 5.3 SE 9 15 5 8 1010.5 1010.5 0.2
22/05:00pm 26.8 28.3 17.6 57 5.8 E 6 7 3 4 1010.7 1010.7 0.2
22/04:30pm 26.8 28.1 17.6 57 5.8 ENE 7 13 4 7 1011.0 1011.0 0.2
22/04:00pm 26.2 27.3 18.1 61 5.1 NE 9 17 5 9 1011.3 1011.3 0.2
22/03:30pm 25.3 25.3 17.2 61 5.0 ENE 13 22 7 12 1010.9 1010.9 0.2
22/03:00pm 25.0 25.0 18.2 66 4.3 ESE 15 20 8 11 1011.0 1011.0 0.2
22/02:30pm 24.5 26.1 18.2 68 4.0 E 7 11 4 6 1011.8 1011.8 0.2
22/02:00pm 24.9 25.7 18.1 66 4.3 E 11 20 6 11 1011.9 1011.9 0.2
22/01:30pm 24.6 24.4 17.6 65 4.4 E 15 20 8 11 1012.0 1012.0 0.2
22/01:00pm 24.8 24.2 17.5 64 4.6 NE 17 24 9 13 1012.4 1012.4 0.2
22/12:30pm 24.1 24.2 17.4 66 4.2 ENE 13 19 7 10 1013.1 1013.1 0.2
22/12:00pm 24.4 25.3 17.6 66 4.2 ENE 9 15 5 8 1013.5 1013.5 0.2
22/11:30am 24.1 25.0 17.6 67 4.0 NE 9 15 5 8 1014.1 1014.0 0.2
22/11:00am 24.3 24.4 17.5 66 4.2 NE 13 19 7 10 1014.2 1014.1 0.2
22/10:30am 23.6 23.1 16.9 66 4.1 NE 15 20 8 11 1014.1 1014.0 0.0
22/10:00am 23.1 23.1 16.2 65 4.2 NE 11 17 6 9 1014.4 1014.3 0.0
22/09:30am 22.7 22.0 16.3 67 3.9 ENE 15 22 8 12 1014.3 1014.2 0.0
22/09:00am 22.0 22.6 16.7 72 3.2 NE 9 15 5 8 1014.6 1014.5 2.2
22/08:30am 21.2 21.3 16.4 74 2.9 E 11 17 6 9 1014.4 1014.3 2.2
22/08:00am 20.6 20.7 16.6 78 2.4 ENE 11 17 6 9 1014.6 1014.5 2.2
22/07:30am 20.3 21.6 18.4 89 1.2 E 9 15 5 8 1014.4 1014.3 2.2
22/07:00am 19.6 19.2 17.2 86 1.5 E 15 20 8 11 1014.2 1014.1 2.2
22/06:30am 21.3 22.1 14.9 67 3.8 ENE 4 6 2 3 1014.5 1014.4 0.4
22/06:00am 22.0 21.1 13.6 59 4.9 NE 11 17 6 9 1014.0 1013.9 0.0
22/05:30am 22.8 21.8 12.4 52 5.9 ENE 9 17 5 9 1013.4 1013.4 0.0
22/05:00am 23.1 21.6 11.8 49 6.4 ENE 11 17 6 9 1013.3 1013.3 0.0
22/04:30am 24.6 22.7 10.5 41 7.8 NE 11 19 6 10 1013.2 1013.2 0.0
22/04:00am 24.8 23.5 9.9 39 8.2 ENE 7 13 4 7 1012.9 1012.9 0.0
22/03:30am 24.9 23.4 9.2 37 8.5 NE 7 9 4 5 1012.9 1012.9 0.0
22/03:00am 23.7 22.8 10.7 44 7.2 E 6 9 3 5 1012.6 1012.6 0.0
22/02:30am 23.6 23.3 11.3 46 6.9 ESE 4 6 2 3 1012.6 1012.6 0.0
22/02:00am 23.1 23.0 12.1 50 6.2 SE 4 4 2 2 1012.4 1012.4 0.0
22/01:30am 23.4 23.9 12.7 51 6.1 SE 2 2 1 1 1012.8 1012.8 0.0
22/01:00am 23.9 23.9 12.5 49 6.5 ESE 4 4 2 2 1013.1 1013.1 0.0
22/12:30am 24.6 24.8 12.9 48 6.8 SSW 4 6 2 3 1013.2 1013.2 0.0
22/12:00am 24.6 24.4 12.9 48 6.8 S 6 7 3 4 1013.4 1013.4 0.0
 
Date/Time
WST
Temp
°C
App
Temp
°C
Dew
Point
°C
Rel
Hum
%
Delta-T
°C
Wind Press
QNH
hPa
Press
MSL
hPa
Rain since
9am
mm
Dir  Spd
km/h
Gust
km/h
Spd
kts
Gust
kts
21/11:30pm 24.2 24.5 13.4 51 6.3 S 4 6 2 3 1013.6 1013.6 0.0
21/11:00pm 24.5 24.8 13.4 50 6.5 SW 4 7 2 4 1014.0 1013.9 0.0
21/10:30pm 23.7 24.7 13.3 52 6.0 CALM 0 2 0 1 1014.4 1014.3 0.0
21/10:00pm 25.1 26.1 13.3 48 6.9 CALM 0 4 0 2 1014.6 1014.5 0.0
21/09:30pm 25.5 25.4 12.0 43 7.7 SE 4 7 2 4 1014.5 1014.4 0.0
21/09:00pm 25.2 25.1 13.4 48 6.9 SSW 6 9 3 5 1014.5 1014.4 0.0
21/08:30pm 24.9 25.6 12.2 45 7.3 CALM 0 0 0 0 1014.3 1014.2 0.0
21/08:00pm 26.5 26.7 11.8 40 8.4 N 2 4 1 2 1014.2 1014.1 0.0
21/07:30pm 27.0 26.2 11.1 37 9.0 SSW 6 9 3 5 1013.8 1013.8 0.0
21/07:00pm 27.3 26.4 11.3 37 9.1 SSW 7 9 4 5 1013.5 1013.5 0.0
21/06:30pm 28.0 27.7 11.5 35 9.5 SSW 4 6 2 3 1013.5 1013.5 0.0
21/06:00pm 28.1 27.0 10.8 34 9.8 SSW 7 9 4 5 1013.4 1013.4 0.0
21/05:30pm 28.3 26.9 10.9 34 9.9 SSW 9 15 5 8 1013.4 1013.4 0.0
21/05:00pm 28.2 26.8 12.1 37 9.3 SSW 11 15 6 8 1013.3 1013.3 0.0
21/04:30pm 29.1 28.3 11.6 33 10.1 WSW 7 11 4 6 1013.3 1013.3 0.0
21/04:00pm 28.8 27.7 11.8 35 9.8 W 9 15 5 8 1013.5 1013.5 0.0
21/03:30pm 29.1 27.0 11.2 33 10.3 WNW 13 15 7 8 1013.8 1013.8 0.0
21/03:00pm 29.0 27.4 11.6 34 10.0 W 11 15 6 8 1014.1 1014.0 0.0
21/02:30pm 28.8 27.0 12.2 35 9.7 WNW 13 17 7 9 1014.4 1014.3 0.0
21/02:00pm 28.9 27.2 12.3 36 9.7 WNW 13 17 7 9 1014.7 1014.6 0.0
21/01:30pm 30.3 28.8 11.8 32 10.8 NW 11 15 6 8 1015.0 1014.9 0.0
21/01:00pm 30.5 29.5 12.4 33 10.6 NW 9 13 5 7 1015.4 1015.3 0.0
21/12:30pm 29.1 28.2 13.7 38 9.2 NNW 11 19 6 10 1015.8 1015.7 0.0
21/12:00pm 30.3 28.0 11.8 32 10.8 NNE 15 24 8 13 1016.0 1015.9 0.0
21/11:30am 31.3 27.6 9.5 26 12.3 N 19 26 10 14 1016.2 1016.1 0.0
21/11:00am 32.2 29.1 10.3 26 12.5 NNE 17 24 9 13 1016.5 1016.4 0.0
21/10:30am 31.2 28.7 11.1 29 11.6 NE 15 24 8 13 1016.7 1016.6 0.0
21/10:00am 28.9 27.0 11.9 35 9.8 E 13 20 7 11 1016.9 1016.8 0.0
21/09:30am 24.8 22.9 11.7 44 7.4 E 13 20 7 11 1017.2 1017.1 0.0
21/09:00am 23.4 21.5 11.8 48 6.5 E 13 20 7 11 1017.1 1017.0 0.0
21/08:30am 22.3 19.9 11.4 50 6.1 E 15 26 8 14 1016.9 1016.8 0.0
21/08:00am 21.5 18.3 11.2 52 5.7 E 19 28 10 15 1016.9 1016.8 0.0
21/07:30am 20.9 18.1 11.3 54 5.3 E 17 30 9 16 1016.8 1016.7 0.0
21/07:00am 20.6 17.2 11.2 55 5.2 E 20 32 11 17 1016.8 1016.7 0.0
21/06:30am 20.0 16.7 11.0 56 4.9 E 19 30 10 16 1016.7 1016.6 0.0
21/06:00am 19.9 16.0 10.9 56 4.9 E 22 32 12 17 1016.3 1016.2 0.0
21/05:30am 20.0 17.1 11.0 56 4.9 E 17 24 9 13 1016.3 1016.2 0.0
21/05:00am 20.2 16.7 10.9 55 5.1 E 20 30 11 16 1016.1 1016.0 0.0
21/04:30am 20.8 17.5 10.9 53 5.4 E 19 28 10 15 1016.0 1015.9 0.0
21/04:00am 20.9 17.5 10.7 52 5.6 E 19 30 10 16 1015.7 1015.6 0.0
21/03:30am 21.2 17.6 10.7 51 5.7 E 20 30 11 16 1015.8 1015.7 0.0
21/03:00am 21.5 17.8 10.3 49 6.1 E 20 32 11 17 1015.8 1015.7 0.0
21/02:30am 21.8 18.4 10.6 49 6.1 E 19 32 10 17 1015.8 1015.7 0.0
21/02:00am 22.3 18.9 10.5 47 6.5 E 19 26 10 14 1015.7 1015.6 0.0
21/01:30am 21.4 20.4 10.9 51 5.8 ESE 7 13 4 7 1015.8 1015.7 0.0
21/01:00am 22.9 20.0 11.0 47 6.6 E 17 33 9 18 1015.9 1015.8 0.0
21/12:30am 23.5 20.7 11.2 46 6.9 ESE 17 24 9 13 1016.0 1015.9 0.0
21/12:00am 24.4 21.6 11.4 44 7.3 ESE 17 30 9 16 1015.9 1015.8 0.0
 
Date/Time
WST
Temp
°C
App
Temp
°C
Dew
Point
°C
Rel
Hum
%
Delta-T
°C
Wind Press
QNH
hPa
Press
MSL
hPa
Rain since
9am
mm
Dir  Spd
km/h
Gust
km/h
Spd
kts
Gust
kts
20/11:30pm 25.1 21.7 11.3 42 7.8 E 20 35 11 19 1015.7 1015.6 0.0
20/11:00pm 25.8 22.5 11.6 41 8.1 E 20 30 11 16 1015.7 1015.6 0.0
20/10:30pm 26.6 22.9 11.5 39 8.6 ESE 22 32 12 17 1015.6 1015.5 0.0
20/10:00pm 27.1 23.7 11.2 37 9.0 ESE 20 32 11 17 1015.4 1015.3 0.0
20/09:30pm 28.0 23.9 8.8 30 10.5 ESE 20 32 11 17 1015.1 1015.0 0.0
20/09:00pm 26.5 24.7 8.0 31 9.9 SE 7 9 4 5 1014.8 1014.7 0.0
20/08:30pm 27.1 24.9 8.0 30 10.3 SE 9 11 5 6 1014.5 1014.4 0.0
20/08:00pm 28.4 26.5 7.6 27 11.2 ESE 7 9 4 5 1014.3 1014.2 0.0
20/07:30pm 30.2 27.5 7.4 24 12.4 ESE 11 15 6 8 1014.0 1013.9 0.0
20/07:00pm 31.4 28.3 7.1 22 13.2 ESE 13 19 7 10 1013.6 1013.6 0.0
20/06:30pm 32.7 29.5 6.8 20 14.1 ESE 13 20 7 11 1013.2 1013.2 0.0
20/06:00pm 33.6 30.4 6.8 19 14.6 ESE 13 20 7 11 1012.9 1012.9 0.0
20/05:30pm 34.6 31.2 7.6 19 15.0 ESE 15 24 8 13 1012.8 1012.8 0.0
20/05:00pm 32.8 31.7 11.9 28 12.3 SW 9 19 5 10 1012.8 1012.8 0.0
20/04:30pm 34.2 32.9 10.1 23 13.9 SSW 7 13 4 7 1012.9 1012.9 0.0
20/04:00pm 33.5 31.5 11.4 26 13.0 W 13 17 7 9 1012.8 1012.8 0.0
20/03:30pm 36.0 34.0 8.7 19 15.5 NE 9 17 5 9 1013.0 1013.0 0.0
20/03:00pm 35.7 34.0 10.0 21 14.9 E 9 20 5 11 1013.2 1013.2 0.0
20/02:30pm 35.0 32.8 9.4 21 14.7 ENE 11 19 6 10 1013.6 1013.6 0.0
20/02:00pm 34.3 32.1 9.5 22 14.2 E 11 20 6 11 1014.0 1013.9 0.0
20/01:30pm 34.3 31.4 9.5 22 14.2 E 15 24 8 13 1014.1 1014.0 0.0
20/01:00pm 34.3 31.7 10.8 24 13.7 E 15 30 8 16 1014.6 1014.5 0.0
20/12:30pm 33.2 30.7 11.1 26 12.9 E 15 24 8 13 1014.8 1014.7 0.0
20/12:00pm 32.7 29.5 11.3 27 12.5 ESE 19 30 10 16 1015.0 1014.9 0.0
20/11:30am 31.6 28.4 11.9 30 11.6 E 20 32 11 17 1015.3 1015.2 0.0
20/11:00am 30.5 27.2 11.5 31 11.0 ENE 20 30 11 16 1015.6 1015.5 0.0
20/10:30am 30.3 27.8 12.2 33 10.6 E 17 26 9 14 1015.6 1015.5 0.0
20/10:00am 29.0 26.1 12.4 36 9.7 E 19 30 10 16 1015.7 1015.6 0.0
20/09:30am 27.2 24.3 12.8 41 8.4 ESE 20 28 11 15 1015.7 1015.6 0.0
20/09:00am 25.7 22.9 13.2 46 7.3 ESE 20 30 11 16 1015.7 1015.6 0.0
20/08:30am 24.1 21.8 13.0 50 6.4 ESE 17 20 9 11 1015.9 1015.8 0.0
20/08:00am 23.0 20.1 12.9 53 5.8 E 20 28 11 15 1016.0 1015.9 0.0
20/07:30am 21.7 21.0 13.3 59 4.8 ESE 9 19 5 10 1015.9 1015.8 0.0
20/07:00am 20.3 18.9 13.5 65 3.9 ESE 13 19 7 10 1015.9 1015.8 0.0
20/06:30am 18.9 17.1 13.3 70 3.2 ESE 15 20 8 11 1015.6 1015.5 0.0
20/06:00am 18.6 16.0 13.2 71 3.0 ESE 19 24 10 13 1015.5 1015.4 0.0
20/05:30am 18.8 16.2 13.2 70 3.2 SE 19 26 10 14 1015.2 1015.1 0.0
20/05:00am 18.9 16.3 13.1 69 3.3 ESE 19 24 10 13 1015.0 1014.9 0.0
20/04:30am 19.0 17.1 13.0 68 3.4 ESE 15 20 8 11 1014.9 1014.8 0.0
20/04:00am 19.3 16.6 13.0 67 3.6 ESE 19 28 10 15 1014.6 1014.5 0.0
20/03:30am 19.7 16.1 12.9 65 3.8 ESE 24 33 13 18 1014.5 1014.4 0.0
20/03:00am 20.0 16.4 13.0 64 4.0 ESE 24 35 13 19 1013.8 1013.8 0.0
20/02:30am 20.2 17.9 12.9 63 4.1 SE 17 28 9 15 1013.8 1013.8 0.0
20/02:00am 20.6 18.2 12.8 61 4.4 ESE 17 24 9 13 1013.7 1013.7 0.0
20/01:30am 21.5 17.8 12.6 57 5.0 ESE 24 35 13 19 1013.7 1013.7 0.0
20/01:00am 21.9 18.9 12.5 55 5.3 SE 20 30 11 16 1013.7 1013.7 0.0
20/12:30am 22.3 19.8 12.3 53 5.7 SE 17 26 9 14 1013.6 1013.6 0.0
20/12:00am 23.4 20.4 12.7 51 6.1 ESE 20 26 11 14 1013.5 1013.5 0.0
 
Date/Time
WST
Temp
°C
App
Temp
°C
Dew
Point
°C
Rel
Hum
%
Delta-T
°C
Wind Press
QNH
hPa
Press
MSL
hPa
Rain since
9am
mm
Dir  Spd
km/h
Gust
km/h
Spd
kts
Gust
kts
19/11:30pm 23.9 21.2 12.8 49 6.4 ESE 19 32 10 17 1013.2 1013.2 0.0
19/11:00pm 24.8 21.1 12.7 47 7.0 ESE 24 32 13 17 1013.3 1013.3 0.0
19/10:30pm 26.1 22.3 12.5 42 7.9 ESE 24 35 13 19 1013.0 1013.0 0.0
19/10:00pm 26.7 23.1 13.1 43 8.0 ESE 24 35 13 19 1012.8 1012.8 0.0
19/09:30pm 27.1 24.3 13.1 42 8.2 SE 20 32 11 17 1012.6 1012.6 0.0
19/09:00pm 26.9 25.8 15.3 49 7.0 S 15 20 8 11 1012.2 1012.2 0.0
19/08:30pm 26.2 25.1 14.3 48 7.1 SSW 13 15 7 8 1011.9 1011.9 0.0
19/08:00pm 26.9 26.8 14.0 45 7.7 SSW 7 9 4 5 1011.5 1011.5 0.0
19/07:30pm 27.8 27.8 14.1 43 8.2 SSW 7 9 4 5 1011.3 1011.3 0.0
19/07:00pm 28.4 28.0 13.1 39 9.0 SSW 7 11 4 6 1010.8 1010.8 0.0

Other formats

Comma delimited format used in spreadsheet applications
http://www.bom.gov.au/fwo/IDW60801/IDW60801.94604.axf

JavaScript Object Notation format (JSON) in row-major order
http://www.bom.gov.au/fwo/IDW60801/IDW60801.94604.json

Data quality

Most of these data are generated automatically and are frequently updated. Quality checks on data are not normally performed. It is possible for incorrect values to appear. Refer to information at About Latest Weather Observations and please check the disclaimer before using these data.